Time;durP1;ratioP1;P1;durP2;ratioP2;P2;SDS_P1;SDS_P2;PMS_P1;PMS_P2;Temp;Humidity;BMP_temperature;BMP_pressure;BME280_temperature;BME280_humidity;BME280_pressure;Samples;Min_cycle;Max_cycle;Signal;HPM_P1;HPM_P2
2021/09/25 00:01:18;;;;;;;14.48;2.72;;;;;14.90;101102.00;;;;4780039;30;20633;-80
2021/09/25 00:03:48;;;;;;;12.77;2.42;;;;;14.90;101068.00;;;;4780592;29;20144;-77
2021/09/25 00:06:18;;;;;;;13.60;2.60;;;;;15.20;101079.00;;;;4781133;30;20043;-78
2021/09/25 00:08:48;;;;;;;4.20;1.15;;;;;15.20;101079.00;;;;4780647;30;20523;-80
2021/09/25 00:11:17;;;;;;;10.50;2.65;;;;;15.20;101066.00;;;;4780638;29;20047;-79
2021/09/25 00:13:47;;;;;;;16.35;4.13;;;;;15.20;101103.00;;;;4780349;30;20727;-79
2021/09/25 00:16:16;;;;;;;11.25;2.47;;;;;15.20;101091.00;;;;4781483;30;20051;-80
2021/09/25 00:18:46;;;;;;;15.93;2.90;;;;;15.20;101077.00;;;;4780875;29;20055;-78
2021/09/25 00:21:15;;;;;;;16.20;3.85;;;;;15.20;101105.00;;;;4781933;30;20054;-79
2021/09/25 00:23:44;;;;;;;12.75;2.50;;;;;15.20;101086.00;;;;4782412;30;20051;-79
2021/09/25 00:26:14;;;;;;;9.38;2.95;;;;;15.10;101100.00;;;;4766511;30;20066;-78
2021/09/25 00:28:44;;;;;;;8.30;2.47;;;;;15.10;101112.00;;;;4781544;30;20085;-79
2021/09/25 00:31:14;;;;;;;16.97;12.40;;;;;15.10;101096.00;;;;4782026;30;20344;-77
2021/09/25 00:33:43;;;;;;;16.52;3.80;;;;;15.10;101106.00;;;;4794334;29;20054;-77
2021/09/25 00:36:13;;;;;;;8.90;2.30;;;;;15.10;101124.00;;;;4799305;29;20059;-80
2021/09/25 00:38:43;;;;;;;13.80;2.88;;;;;15.10;101126.00;;;;4783207;29;20530;-80
2021/09/25 00:41:13;;;;;;;9.63;4.05;;;;;15.00;101107.00;;;;4799473;29;20055;-80
2021/09/25 00:43:45;;;;;;;11.32;2.17;;;;;15.10;101124.00;;;;4799478;29;20134;-79
2021/09/25 00:46:14;;;;;;;9.02;2.40;;;;;15.10;101125.00;;;;4783787;29;20480;-78
2021/09/25 00:48:44;;;;;;;12.20;2.28;;;;;15.10;101124.00;;;;4798025;29;20063;-79
2021/09/25 00:51:13;;;;;;;11.50;2.35;;;;;15.00;101124.00;;;;4799552;29;20107;-79
2021/09/25 00:53:44;;;;;;;6.32;2.10;;;;;15.10;101120.00;;;;4790391;29;20055;-79
2021/09/25 00:56:13;;;;;;;15.13;2.60;;;;;15.10;101135.00;;;;4780862;30;20144;-79
2021/09/25 00:58:43;;;;;;;8.25;2.42;;;;;15.10;101113.00;;;;4779325;30;20047;-77
2021/09/25 01:01:12;;;;;;;13.45;3.13;;;;;15.10;101132.00;;;;4765751;30;20047;-81
2021/09/25 01:03:42;;;;;;;12.18;2.80;;;;;15.20;101119.00;;;;4779752;30;20065;-78
2021/09/25 01:06:12;;;;;;;11.80;2.10;;;;;15.20;101117.00;;;;4781513;30;20142;-80
2021/09/25 01:08:42;;;;;;;18.67;14.65;;;;;15.10;101111.00;;;;4779947;30;20059;-78
2021/09/25 01:11:11;;;;;;;11.50;2.78;;;;;15.10;101115.00;;;;4783735;29;20442;-79
2021/09/25 01:13:41;;;;;;;12.60;2.55;;;;;15.10;101122.00;;;;4782036;30;20663;-77
2021/09/25 01:16:10;;;;;;;226.93;162.43;;;;;15.00;101128.00;;;;4779843;30;20059;-78
2021/09/25 01:18:39;;;;;;;6.88;2.40;;;;;15.10;101132.00;;;;4781024;30;20114;-77
2021/09/25 01:21:09;;;;;;;48.15;9.23;;;;;15.10;101118.00;;;;4780661;29;20044;-81
2021/09/25 01:23:39;;;;;;;10.65;2.20;;;;;15.10;101125.00;;;;4785327;29;20062;-77
2021/09/25 01:26:09;;;;;;;3.63;0.70;;;;;15.10;101152.00;;;;4785029;29;20082;-79
2021/09/25 01:28:40;;;;;;;5.80;3.55;;;;;15.00;101123.00;;;;4784821;30;20062;-77
2021/09/25 01:31:12;;;;;;;13.10;4.90;;;;;15.10;101137.00;;;;4785124;30;20043;-81
2021/09/25 01:33:46;;;;;;;9.23;2.42;;;;;15.20;101151.00;;;;4797315;29;20043;-81
2021/09/25 01:36:18;;;;;;;10.65;3.22;;;;;15.30;101130.00;;;;4803084;29;20066;-78
2021/09/25 01:38:47;;;;;;;10.60;2.80;;;;;15.20;101143.00;;;;4801338;29;20058;-78
2021/09/25 01:41:17;;;;;;;11.60;2.60;;;;;15.10;101135.00;;;;4803273;29;20058;-80
2021/09/25 01:43:47;;;;;;;15.32;3.03;;;;;15.10;101143.00;;;;4802778;29;20527;-79
2021/09/25 01:46:19;;;;;;;13.93;2.75;;;;;15.00;101146.00;;;;4803860;29;20046;-79
2021/09/25 01:48:49;;;;;;;9.55;2.65;;;;;14.90;101126.00;;;;4802748;29;20150;-80
2021/09/25 01:51:19;;;;;;;12.68;11.77;;;;;14.90;101124.00;;;;4802852;29;20590;-79
2021/09/25 01:53:49;;;;;;;4.55;1.27;;;;;14.80;101139.00;;;;4786678;29;20583;-79
2021/09/25 01:56:18;;;;;;;2.10;1.00;;;;;14.80;101129.00;;;;4802399;29;20054;-77
2021/09/25 01:58:48;;;;;;;8.95;2.90;;;;;14.70;101138.00;;;;4802800;29;20774;-79
2021/09/25 02:01:17;;;;;;;8.15;2.92;;;;;14.70;101140.00;;;;4803264;29;20054;-80
2021/09/25 02:03:47;;;;;;;16.08;14.63;;;;;14.60;101115.00;;;;4805323;29;20411;-80
2021/09/25 02:06:17;;;;;;;9.07;2.15;;;;;14.60;101121.00;;;;4805310;29;20545;-78
2021/09/25 02:08:46;;;;;;;8.13;2.95;;;;;14.60;101121.00;;;;4790192;29;20059;-77
2021/09/25 02:11:15;;;;;;;9.10;2.33;;;;;14.50;101147.00;;;;4804439;29;20059;-81
2021/09/25 02:13:45;;;;;;;9.07;2.72;;;;;14.40;101128.00;;;;4802392;29;20038;-81
2021/09/25 02:16:14;;;;;;;7.68;2.65;;;;;14.40;101127.00;;;;4803039;29;20058;-78
2021/09/25 02:18:44;;;;;;;8.65;2.80;;;;;14.30;101143.00;;;;4803088;29;20059;-81
2021/09/25 02:21:14;;;;;;;0.70;0.40;;;;;14.20;101126.00;;;;4802331;29;20058;-79
2021/09/25 02:23:45;;;;;;;0.50;0.20;;;;;14.20;101111.00;;;;4800886;29;20066;-77
2021/09/25 02:26:14;;;;;;;9.75;6.25;;;;;14.10;101118.00;;;;4801807;29;20078;-77
2021/09/25 02:28:44;;;;;;;8.30;2.35;;;;;14.00;101108.00;;;;4802560;29;20062;-79
2021/09/25 02:31:14;;;;;;;9.85;1.70;;;;;14.00;101126.00;;;;4802556;29;20046;-80
2021/09/25 02:33:43;;;;;;;5.15;1.83;;;;;13.90;101105.00;;;;4801177;29;20670;-81
2021/09/25 02:36:13;;;;;;;4.18;1.88;;;;;13.80;101130.00;;;;4802318;29;20077;-80
2021/09/25 02:38:43;;;;;;;6.30;3.28;;;;;13.70;101116.00;;;;4816623;29;20070;-77
2021/09/25 02:41:12;;;;;;;12.50;2.83;;;;;13.60;101124.00;;;;4820703;29;20057;-78
2021/09/25 02:43:42;;;;;;;8.68;3.88;;;;;13.50;101125.00;;;;4819708;29;20636;-78
2021/09/25 02:46:11;;;;;;;11.82;2.58;;;;;13.40;101104.00;;;;4818320;29;20058;-78
2021/09/25 02:48:41;;;;;;;12.18;3.42;;;;;13.40;101116.00;;;;4819904;29;20050;-79
2021/09/25 02:51:10;;;;;;;11.05;3.20;;;;;13.30;101116.00;;;;4819929;29;20046;-80
2021/09/25 02:53:40;;;;;;;8.38;3.17;;;;;13.30;101117.00;;;;4818753;29;20057;-78
2021/09/25 02:56:11;;;;;;;9.40;3.65;;;;;13.20;101124.00;;;;4822441;29;20042;-80
2021/09/25 02:58:40;;;;;;;8.77;2.45;;;;;13.20;101094.00;;;;4820624;29;20063;-78
2021/09/25 03:01:10;;;;;;;8.07;2.30;;;;;13.10;101117.00;;;;4821253;29;20137;-78
2021/09/25 03:03:39;;;;;;;8.35;2.72;;;;;13.10;101106.00;;;;4806185;29;20096;-79
2021/09/25 03:06:09;;;;;;;292.15;95.07;;;;;13.00;101102.00;;;;4807136;29;20090;-79
2021/09/25 03:08:38;;;;;;;9.35;3.50;;;;;13.00;101085.00;;;;4822090;29;20593;-78
2021/09/25 03:11:08;;;;;;;12.25;3.95;;;;;12.90;101112.00;;;;4823036;29;20042;-80
2021/09/25 03:13:37;;;;;;;13.02;3.55;;;;;12.90;101092.00;;;;4822553;29;20121;-78
2021/09/25 03:16:07;;;;;;;9.10;2.63;;;;;12.80;101081.00;;;;4824763;29;20058;-79
2021/09/25 03:18:37;;;;;;;11.82;3.30;;;;;12.80;101085.00;;;;4824213;29;20051;-79
2021/09/25 03:21:06;;;;;;;21.00;2.78;;;;;12.80;101075.00;;;;4822191;29;20054;-78
2021/09/25 03:23:35;;;;;;;11.40;2.80;;;;;12.70;101074.00;;;;4821247;29;20054;-80
2021/09/25 03:26:05;;;;;;;12.55;3.83;;;;;12.70;101091.00;;;;4821210;29;20045;-81
2021/09/25 03:28:34;;;;;;;13.10;3.92;;;;;12.60;101082.00;;;;4823529;29;20141;-78
2021/09/25 03:31:04;;;;;;;11.82;3.63;;;;;12.60;101087.00;;;;4821842;29;20173;-78
2021/09/25 03:33:33;;;;;;;13.07;4.80;;;;;12.60;101092.00;;;;4823806;29;20074;-79
2021/09/25 03:36:03;;;;;;;19.17;4.63;;;;;12.50;101081.00;;;;4817243;29;20059;-77
2021/09/25 03:38:33;;;;;;;8.52;3.55;;;;;12.50;101070.00;;;;4822209;29;20054;-78
2021/09/25 03:41:03;;;;;;;9.68;3.83;;;;;12.50;101066.00;;;;4815009;29;20291;-77
2021/09/25 03:43:33;;;;;;;15.43;4.60;;;;;12.40;101064.00;;;;4823011;29;20054;-79
2021/09/25 03:46:02;;;;;;;9.88;3.60;;;;;12.50;101056.00;;;;4823240;29;20399;-78
2021/09/25 03:48:32;;;;;;;17.60;3.97;;;;;12.50;101038.00;;;;4823489;29;20108;-80
2021/09/25 03:51:01;;;;;;;10.35;3.80;;;;;12.40;101070.00;;;;4815583;29;20051;-77
2021/09/25 03:53:30;;;;;;;12.25;3.20;;;;;12.30;101055.00;;;;4823465;29;20510;-78
2021/09/25 03:56:05;;;;;;;10.32;2.95;;;;;12.30;101061.00;;;;4822131;29;20083;-79
2021/09/25 03:58:36;;;;;;;10.13;4.20;;;;;12.30;101049.00;;;;4823559;29;20050;-77
2021/09/25 04:01:07;;;;;;;2.73;0.97;;;;;12.30;101036.00;;;;4805748;29;20050;-78
2021/09/25 04:03:37;;;;;;;15.70;11.10;;;;;12.30;101047.00;;;;4822619;29;20073;-76
2021/09/25 04:06:07;;;;;;;18.58;4.25;;;;;12.20;101060.00;;;;4821720;29;20167;-79
2021/09/25 04:08:37;;;;;;;14.20;4.13;;;;;12.20;101024.00;;;;4822164;29;20042;-77
2021/09/25 04:11:06;;;;;;;7.72;3.45;;;;;12.20;101035.00;;;;4815241;29;20510;-79
2021/09/25 04:13:35;;;;;;;12.45;3.75;;;;;12.10;101050.00;;;;4821697;29;20054;-80
2021/09/25 04:16:05;;;;;;;12.68;4.15;;;;;12.10;101055.00;;;;4822040;29;20050;-77
2021/09/25 04:18:34;;;;;;;15.00;3.97;;;;;12.10;101055.00;;;;4822092;29;20051;-78
2021/09/25 04:21:04;;;;;;;15.18;3.28;;;;;12.10;101052.00;;;;4822146;29;20585;-78
2021/09/25 04:23:33;;;;;;;13.18;3.60;;;;;12.00;101047.00;;;;4821591;29;20057;-76
2021/09/25 04:26:03;;;;;;;15.70;3.67;;;;;12.00;101032.00;;;;4822064;29;20056;-79
2021/09/25 04:28:32;;;;;;;7.75;3.35;;;;;12.00;101029.00;;;;4820962;29;20069;-77
2021/09/25 04:31:02;;;;;;;15.73;3.42;;;;;11.90;101000.00;;;;4822356;29;20057;-77
2021/09/25 04:33:31;;;;;;;10.80;3.78;;;;;11.90;101030.00;;;;4820325;29;20055;-80
2021/09/25 04:36:01;;;;;;;11.93;3.90;;;;;11.90;101028.00;;;;4823284;29;20062;-78
2021/09/25 04:38:30;;;;;;;7.85;2.83;;;;;11.90;101007.00;;;;4823542;29;20046;-81
2021/09/25 04:40:59;;;;;;;17.35;4.05;;;;;11.80;101020.00;;;;4823285;29;20051;-79
2021/09/25 04:43:29;;;;;;;13.60;3.72;;;;;11.70;101002.00;;;;4822237;29;20054;-78
2021/09/25 04:45:58;;;;;;;12.65;3.88;;;;;11.60;100977.00;;;;4823696;29;20062;-77
2021/09/25 04:48:28;;;;;;;14.38;3.95;;;;;11.60;101009.00;;;;4817316;29;20058;-80
2021/09/25 04:50:57;;;;;;;17.35;4.15;;;;;11.60;101002.00;;;;4819017;29;20050;-76
2021/09/25 04:53:30;;;;;;;21.52;4.05;;;;;11.60;101001.00;;;;4818101;29;20438;-77
2021/09/25 04:56:00;;;;;;;11.55;4.35;;;;;11.50;101012.00;;;;4821999;29;20133;-77
2021/09/25 04:58:29;;;;;;;12.23;4.10;;;;;11.50;101011.00;;;;4822432;29;20067;-80
2021/09/25 05:00:59;;;;;;;15.63;4.80;;;;;11.50;100987.00;;;;4824143;29;20853;-78
2021/09/25 05:03:29;;;;;;;13.18;4.35;;;;;11.50;101007.00;;;;4821776;29;20066;-79
2021/09/25 05:06:00;;;;;;;10.35;3.65;;;;;11.50;100983.00;;;;4822320;29;20046;-78
2021/09/25 05:08:30;;;;;;;;;;;;;11.40;100992.00;;;;4822874;29;20099;-80
2021/09/25 05:10:59;;;;;;;11.48;3.30;;;;;11.40;100979.00;;;;4823163;29;19928;-79
2021/09/25 05:13:29;;;;;;;15.27;3.78;;;;;11.30;100978.00;;;;4823511;29;20050;-80
2021/09/25 05:15:58;;;;;;;12.77;3.28;;;;;11.30;100986.00;;;;4823612;29;20514;-79
2021/09/25 05:18:28;;;;;;;15.85;4.38;;;;;11.30;100982.00;;;;4822674;29;20043;-79
2021/09/25 05:20:57;;;;;;;8.02;3.72;;;;;11.30;100952.00;;;;4824276;29;20525;-79
2021/09/25 05:23:27;;;;;;;9.35;3.47;;;;;11.40;100947.00;;;;4822783;29;20446;-78
2021/09/25 05:25:56;;;;;;;12.77;3.72;;;;;11.40;100952.00;;;;4823690;29;20054;-80
2021/09/25 05:28:26;;;;;;;9.98;3.72;;;;;11.30;100946.00;;;;4822927;29;20136;-79
2021/09/25 05:30:56;;;;;;;10.95;3.42;;;;;11.30;100956.00;;;;4822358;29;20070;-78
2021/09/25 05:33:25;;;;;;;12.30;3.47;;;;;11.20;100968.00;;;;4822407;29;20054;-78
2021/09/25 05:35:54;;;;;;;8.48;3.08;;;;;11.30;100943.00;;;;4822209;29;20058;-78
2021/09/25 05:38:24;;;;;;;10.48;3.80;;;;;11.30;100956.00;;;;4820735;29;20541;-79
2021/09/25 05:40:53;;;;;;;10.65;3.38;;;;;11.20;100924.00;;;;4821269;29;20062;-79
2021/09/25 05:43:23;;;;;;;7.35;3.30;;;;;11.20;100943.00;;;;4822169;29;20064;-79
2021/09/25 05:45:52;;;;;;;9.90;4.03;;;;;11.20;100935.00;;;;4822204;29;20129;-78
2021/09/25 05:48:22;;;;;;;14.52;3.63;;;;;11.20;100920.00;;;;4820358;29;20434;-77
2021/09/25 05:50:51;;;;;;;21.40;4.50;;;;;11.20;100925.00;;;;4821419;29;20129;-78
2021/09/25 05:53:21;;;;;;;15.98;3.90;;;;;11.10;100923.00;;;;4821780;29;20061;-80
2021/09/25 05:55:51;;;;;;;9.95;3.78;;;;;11.00;100932.00;;;;4820682;29;20425;-78
2021/09/25 05:58:20;;;;;;;10.93;3.15;;;;;10.90;100903.00;;;;4821845;29;20058;-78
2021/09/25 06:00:49;;;;;;;15.68;3.47;;;;;10.90;100917.00;;;;4822299;29;20051;-79
2021/09/25 06:03:19;;;;;;;14.60;3.65;;;;;10.80;100909.00;;;;4821718;29;20042;-77
2021/09/25 06:05:48;;;;;;;1.25;0.55;;;;;10.80;100908.00;;;;4820053;29;20108;-79
2021/09/25 06:08:18;;;;;;;6.68;2.90;;;;;10.80;100898.00;;;;4820129;29;20056;-78
2021/09/25 06:10:47;;;;;;;8.25;3.13;;;;;10.70;100901.00;;;;4821671;29;20081;-77
2021/09/25 06:13:17;;;;;;;4.47;2.50;;;;;10.70;100881.00;;;;4821416;29;20054;-77
2021/09/25 06:15:46;;;;;;;15.80;3.50;;;;;10.60;100886.00;;;;4821017;29;20046;-78
2021/09/25 06:18:16;;;;;;;8.02;2.78;;;;;10.60;100874.00;;;;4819791;29;20046;-78
2021/09/25 06:20:45;;;;;;;8.18;3.42;;;;;10.50;100886.00;;;;4820798;29;20046;-78
2021/09/25 06:23:15;;;;;;;13.75;3.35;;;;;10.50;100889.00;;;;4819992;29;20129;-79
2021/09/25 06:25:45;;;;;;;10.43;3.08;;;;;10.50;100878.00;;;;4820950;29;20054;-79
2021/09/25 06:28:17;;;;;;;8.85;3.22;;;;;10.50;100878.00;;;;4818599;29;20050;-80
2021/09/25 06:30:47;;;;;;;8.25;2.90;;;;;10.50;100875.00;;;;4821086;29;20059;-80
2021/09/25 06:33:17;;;;;;;13.02;4.43;;;;;10.50;100866.00;;;;4821426;29;20390;-78
2021/09/25 06:35:48;;;;;;;9.05;2.92;;;;;10.50;100877.00;;;;4823879;29;20515;-76
2021/09/25 06:38:17;;;;;;;12.02;7.75;;;;;10.40;100870.00;;;;4822237;29;20481;-77
2021/09/25 06:40:46;;;;;;;8.15;3.25;;;;;10.40;100862.00;;;;4820423;29;20065;-80
2021/09/25 06:43:16;;;;;;;13.80;3.80;;;;;10.40;100880.00;;;;4819706;29;20054;-80
2021/09/25 06:45:45;;;;;;;13.98;3.80;;;;;10.30;100902.00;;;;4819312;29;20057;-79
2021/09/25 06:48:15;;;;;;;10.73;3.40;;;;;10.30;100872.00;;;;4819486;29;20062;-78
2021/09/25 06:50:44;;;;;;;10.68;3.50;;;;;10.30;100879.00;;;;4819731;29;20054;-77
2021/09/25 06:53:14;;;;;;;10.65;3.80;;;;;10.30;100861.00;;;;4819784;29;20070;-81
2021/09/25 06:55:43;;;;;;;11.18;3.40;;;;;10.30;100881.00;;;;4819714;29;20510;-80
2021/09/25 06:58:13;;;;;;;10.90;3.85;;;;;10.30;100865.00;;;;4820061;29;20078;-78
2021/09/25 07:00:47;;;;;;;7.82;3.40;;;;;10.30;100867.00;;;;4817503;29;20145;-79
2021/09/25 07:03:20;;;;;;;10.82;3.40;;;;;10.40;100884.00;;;;4818975;29;20046;-78
2021/09/25 07:05:50;;;;;;;12.82;3.88;;;;;10.30;100874.00;;;;4818655;29;20637;-78
2021/09/25 07:08:19;;;;;;;12.48;3.35;;;;;10.30;100894.00;;;;4817458;29;20522;-81
2021/09/25 07:10:50;;;;;;;11.38;3.63;;;;;10.20;100876.00;;;;4818991;29;20119;-79
2021/09/25 07:13:20;;;;;;;9.52;3.50;;;;;10.20;100884.00;;;;4817745;29;20046;-80
2021/09/25 07:15:50;;;;;;;8.90;2.88;;;;;10.20;100887.00;;;;4818193;29;20062;-78
2021/09/25 07:18:20;;;;;;;9.75;2.90;;;;;10.10;100866.00;;;;4817889;29;20861;-80
2021/09/25 07:20:51;;;;;;;12.60;3.38;;;;;10.10;100870.00;;;;4819244;29;20100;-77
2021/09/25 07:23:20;;;;;;;24.83;4.90;;;;;10.20;100890.00;;;;4818372;29;20054;-77
2021/09/25 07:25:50;;;;;;;56.53;6.93;;;;;10.20;100865.00;;;;4819122;29;20058;-79
2021/09/25 07:28:19;;;;;;;50.58;5.95;;;;;10.30;100870.00;;;;4819066;29;20107;-80
2021/09/25 07:30:49;;;;;;;80.68;6.95;;;;;10.30;100901.00;;;;4818484;29;20054;-80
2021/09/25 07:33:18;;;;;;;72.05;7.03;;;;;10.40;100873.00;;;;4818879;29;20046;-78
2021/09/25 07:35:47;;;;;;;76.78;6.03;;;;;10.40;100899.00;;;;4818329;29;20058;-78
2021/09/25 07:38:17;;;;;;;66.72;7.18;;;;;10.40;100889.00;;;;4790497;29;20063;-81
2021/09/25 07:40:46;;;;;;;131.95;8.18;;;;;10.40;100898.00;;;;4800302;29;20043;-79
2021/09/25 07:43:16;;;;;;;125.28;7.10;;;;;10.40;100904.00;;;;4800367;29;20400;-77
2021/09/25 07:45:45;;;;;;;159.63;9.45;;;;;10.50;100905.00;;;;4800107;29;20055;-80
2021/09/25 07:48:15;;;;;;;82.78;6.43;;;;;10.50;100890.00;;;;4799752;29;20578;-78
2021/09/25 07:50:45;;;;;;;167.82;10.32;;;;;10.60;100919.00;;;;4798486;29;20200;-80
2021/09/25 07:53:14;;;;;;;115.38;6.28;;;;;10.60;100910.00;;;;4799824;29;20521;-79
2021/09/25 07:55:44;;;;;;;102.03;6.65;;;;;10.60;100911.00;;;;4799978;29;20050;-78
2021/09/25 07:58:13;;;;;;;103.30;5.28;;;;;10.50;100928.00;;;;4800113;29;20054;-80
2021/09/25 08:00:43;;;;;;;86.35;5.28;;;;;10.50;100908.00;;;;4798852;29;20063;-80
2021/09/25 08:03:13;;;;;;;93.20;5.47;;;;;10.60;100924.00;;;;4799573;29;20306;-78
2021/09/25 08:05:43;;;;;;;59.03;4.57;;;;;10.70;100922.00;;;;4800516;29;20058;-78
2021/09/25 08:08:12;;;;;;;139.05;6.43;;;;;10.70;100930.00;;;;4799741;29;20142;-77
2021/09/25 08:10:42;;;;;;;121.75;7.13;;;;;10.70;100935.00;;;;4799844;29;20054;-79
2021/09/25 08:13:11;;;;;;;149.50;6.30;;;;;10.70;100922.00;;;;4799370;29;20058;-78
2021/09/25 08:15:51;;;;;;;159.32;7.55;;;;;10.80;100932.00;;;;4798358;29;20051;-80
2021/09/25 08:18:21;;;;;;;230.27;10.43;;;;;10.90;100942.00;;;;4800047;29;20141;-76
2021/09/25 08:20:51;;;;;;;259.73;18.10;;;;;10.90;100925.00;;;;4798568;29;20059;-78
2021/09/25 08:23:20;;;;;;;132.18;8.63;;;;;11.00;100942.00;;;;4799681;29;20065;-78
2021/09/25 08:25:50;;;;;;;208.57;12.60;;;;;11.00;100956.00;;;;4798303;29;20177;-79
2021/09/25 08:28:20;;;;;;;236.30;12.45;;;;;11.10;100952.00;;;;4799754;29;20107;-80
2021/09/25 08:30:50;;;;;;;166.55;11.00;;;;;11.10;100940.00;;;;4782583;29;20061;-76
2021/09/25 08:33:20;;;;;;;176.27;14.02;;;;;11.20;100941.00;;;;4799603;29;20047;-78
2021/09/25 08:35:49;;;;;;;220.18;19.02;;;;;11.20;100960.00;;;;4797943;29;20055;-80
2021/09/25 08:38:19;;;;;;;159.88;12.73;;;;;11.30;100961.00;;;;4810745;29;20064;-80
2021/09/25 08:40:49;;;;;;;228.05;15.88;;;;;11.30;100952.00;;;;4817281;29;20046;-78
2021/09/25 08:43:20;;;;;;;255.55;16.95;;;;;11.40;100956.00;;;;4817761;29;20059;-78
2021/09/25 08:45:54;;;;;;;270.17;22.35;;;;;11.60;100953.00;;;;4817763;29;20121;-78
2021/09/25 08:48:24;;;;;;;356.40;21.67;;;;;11.50;100946.00;;;;4817795;29;20515;-79
2021/09/25 08:50:54;;;;;;;453.02;28.80;;;;;11.60;100965.00;;;;4818003;29;20054;-79
2021/09/25 08:53:24;;;;;;;407.85;22.85;;;;;11.60;100962.00;;;;4817605;29;20134;-79
2021/09/25 08:55:53;;;;;;;403.00;24.75;;;;;11.70;100939.00;;;;4816108;29;20268;-78
2021/09/25 08:58:23;;;;;;;325.92;18.52;;;;;11.70;100973.00;;;;4817568;29;20038;-78
2021/09/25 09:00:53;;;;;;;502.50;23.67;;;;;11.80;100973.00;;;;4801223;29;20415;-76
2021/09/25 09:03:27;;;;;;;528.20;29.98;;;;;11.80;100979.00;;;;4815417;29;20545;-80
2021/09/25 09:06:10;;;;;;;666.00;34.75;;;;;11.90;100979.00;;;;4818225;29;20078;-77
2021/09/25 09:08:42;;;;;;;702.72;33.08;;;;;11.90;100992.00;;;;4817876;29;20137;-78
2021/09/25 09:11:12;;;;;;;469.75;29.17;;;;;11.90;100984.00;;;;4817659;29;20091;-77
2021/09/25 09:13:43;;;;;;;503.40;26.63;;;;;11.80;100993.00;;;;4817688;29;20129;-79
2021/09/25 09:16:14;;;;;;;484.80;32.25;;;;;11.90;100976.00;;;;4817669;29;20089;-76
2021/09/25 09:18:46;;;;;;;301.80;21.38;;;;;11.90;100982.00;;;;4817524;29;20123;-79
2021/09/25 09:21:21;;;;;;;271.85;18.60;;;;;11.80;100984.00;;;;4786524;29;20096;-78
2021/09/25 09:24:04;;;;;;;473.52;28.17;;;;;11.80;100965.00;;;;4817269;29;20054;-79
2021/09/25 09:26:37;;;;;;;556.08;30.67;;;;;11.90;100995.00;;;;4816599;29;20135;-79
2021/09/25 09:29:09;;;;;;;429.05;24.65;;;;;11.80;101000.00;;;;4816872;29;20122;-78
2021/09/25 09:31:39;;;;;;;579.60;27.27;;;;;11.90;100985.00;;;;4800891;29;20111;-77
2021/09/25 09:34:09;;;;;;;395.40;25.38;;;;;12.00;100983.00;;;;4817902;29;20058;-80
2021/09/25 09:36:41;;;;;;;604.95;42.90;;;;;12.10;100999.00;;;;4817760;29;20054;-79
2021/09/25 09:39:17;;;;;;;644.45;29.27;;;;;12.00;101016.00;;;;4817251;29;20059;-79
2021/09/25 09:41:56;;;;;;;374.48;24.02;;;;;11.90;101016.00;;;;4816273;29;21044;-79
2021/09/25 09:44:30;;;;;;;295.83;18.27;;;;;11.80;101001.00;;;;4820260;29;20430;-79
2021/09/25 09:47:02;;;;;;;481.05;25.85;;;;;11.80;101022.00;;;;4820161;29;20087;-81
2021/09/25 09:49:38;;;;;;;337.13;17.15;;;;;11.90;101040.00;;;;4820154;29;20059;-82
2021/09/25 09:52:11;;;;;;;355.83;19.48;;;;;11.90;101027.00;;;;4820551;29;20133;-79
2021/09/25 09:54:43;;;;;;;346.30;23.17;;;;;12.00;101037.00;;;;4820383;29;20050;-78
2021/09/25 09:57:18;;;;;;;323.10;18.55;;;;;11.90;101027.00;;;;4820405;29;20073;-79
2021/09/25 09:59:50;;;;;;;259.65;13.48;;;;;11.80;101050.00;;;;4819576;29;20571;-78
2021/09/25 10:02:20;;;;;;;298.42;17.10;;;;;11.90;101044.00;;;;4819192;29;20043;-78
2021/09/25 10:04:50;;;;;;;209.77;12.05;;;;;11.90;101025.00;;;;4803033;29;20057;-78
2021/09/25 10:07:19;;;;;;;260.30;16.02;;;;;11.90;101029.00;;;;4820297;29;20039;-78
2021/09/25 10:09:49;;;;;;;129.65;10.77;;;;;12.00;101046.00;;;;4819841;29;20070;-77
2021/09/25 10:15:54;;;;;;;341.77;18.63;;;;;12.10;101038.00;;;;4820034;29;20055;-78
2021/09/25 10:18:25;;;;;;;105.47;18.10;;;;;12.30;101038.00;;;;4818596;29;20065;-78
2021/09/25 10:20:54;;;;;;;167.30;16.33;;;;;12.30;101036.00;;;;4819566;29;20303;-78
2021/09/25 10:23:25;;;;;;;423.35;24.40;;;;;12.50;101036.00;;;;4820414;29;20084;-78
2021/09/25 10:25:54;;;;;;;449.55;25.10;;;;;12.80;101034.00;;;;4818913;29;20506;-78
2021/09/25 10:28:29;;;;;;;236.43;16.45;;;;;12.90;101028.00;;;;4802590;29;20220;-78
2021/09/25 10:30:59;;;;;;;334.67;17.67;;;;;13.00;101029.00;;;;4819072;29;20057;-78
2021/09/25 10:33:29;;;;;;;473.35;24.98;;;;;13.20;101046.00;;;;4819280;29;20430;-78
2021/09/25 10:35:58;;;;;;;289.05;17.50;;;;;13.20;101053.00;;;;4819555;29;20050;-77
2021/09/25 10:38:38;;;;;;;169.95;13.85;;;;;12.80;101043.00;;;;4789374;29;20484;-79
2021/09/25 10:41:41;;;;;;;175.32;14.85;;;;;12.70;101065.00;;;;4800466;29;20050;-78
2021/09/25 10:44:25;;;;;;;368.83;19.13;;;;;13.00;101049.00;;;;4801563;29;20055;-77
2021/09/25 10:47:12;;;;;;;278.95;16.70;;;;;13.00;101051.00;;;;4799487;29;20047;-78
2021/09/25 10:49:58;;;;;;;299.17;18.15;;;;;13.20;101069.00;;;;4800526;29;20134;-79
2021/09/25 10:53:06;;;;;;;232.68;13.27;;;;;13.30;101075.00;;;;4800708;29;20051;-78
2021/09/25 10:55:38;;;;;;;177.18;13.10;;;;;13.50;101055.00;;;;4801102;29;20050;-80
2021/09/25 10:58:22;;;;;;;283.85;17.60;;;;;13.40;101068.00;;;;4800842;29;20157;-79
2021/09/25 11:00:56;;;;;;;98.95;10.60;;;;;13.50;101080.00;;;;4801074;29;20043;-77
2021/09/25 11:03:52;;;;;;;112.80;9.63;;;;;13.40;101075.00;;;;4800610;29;20549;-79
2021/09/25 11:06:23;;;;;;;64.80;12.00;;;;;13.40;101077.00;;;;4782959;29;20059;-78
2021/09/25 11:08:55;;;;;;;72.65;10.50;;;;;13.40;101079.00;;;;4801597;29;20078;-76
2021/09/25 11:11:31;;;;;;;;;;;;;13.40;101079.00;;;;4804022;29;20051;-76
2021/09/25 11:14:02;;;;;;;17.70;9.23;;;;;13.40;101074.00;;;;4796603;29;19935;-75
2021/09/25 11:17:06;;;;;;;127.22;13.63;;;;;13.40;101078.00;;;;4801614;29;20055;-79
2021/09/25 11:19:50;;;;;;;136.00;11.02;;;;;13.50;101055.00;;;;4799335;29;20047;-77
2021/09/25 11:22:33;;;;;;;67.43;11.98;;;;;13.90;101076.00;;;;4800412;29;20097;-77
2021/09/25 11:25:16;;;;;;;16.27;11.10;;;;;14.20;101081.00;;;;4800113;29;20055;-77
2021/09/25 11:27:51;;;;;;;18.88;9.75;;;;;14.40;101074.00;;;;4800274;29;20051;-76
2021/09/25 11:30:25;;;;;;;17.88;9.75;;;;;14.40;101063.00;;;;4799514;29;20490;-78
2021/09/25 11:33:03;;;;;;;29.60;11.20;;;;;14.80;101064.00;;;;4800672;29;20064;-76
2021/09/25 11:35:37;;;;;;;16.50;9.80;;;;;14.90;101056.00;;;;4800219;29;20051;-77
2021/09/25 11:38:20;;;;;;;10.10;8.57;;;;;14.80;101034.00;;;;4811917;29;20112;-78
2021/09/25 11:40:50;;;;;;;13.25;10.63;;;;;14.90;101045.00;;;;4817940;29;20129;-78
2021/09/25 11:43:22;;;;;;;16.88;10.48;;;;;14.80;101053.00;;;;4818675;29;20514;-78
2021/09/25 11:45:54;;;;;;;15.25;10.63;;;;;14.80;101058.00;;;;4817932;29;20047;-78
2021/09/25 11:48:28;;;;;;;17.38;11.18;;;;;15.30;101054.00;;;;4818660;29;20514;-78
2021/09/25 11:51:01;;;;;;;14.18;10.52;;;;;15.50;101054.00;;;;4817719;29;20133;-80
2021/09/25 11:53:32;;;;;;;15.20;10.32;;;;;15.50;101051.00;;;;4818894;29;20061;-78
2021/09/25 11:56:01;;;;;;;11.73;10.38;;;;;15.60;101036.00;;;;4818211;29;20042;-78
2021/09/25 11:58:30;;;;;;;12.77;10.07;;;;;15.90;101033.00;;;;4818441;29;20046;-76
2021/09/25 12:01:01;;;;;;;11.07;9.60;;;;;16.60;101039.00;;;;4817411;29;20058;-79
2021/09/25 12:03:38;;;;;;;10.10;9.00;;;;;16.80;101031.00;;;;4818634;29;20510;-79
2021/09/25 12:06:08;;;;;;;10.20;8.48;;;;;17.20;101038.00;;;;4818169;29;20046;-77
2021/09/25 12:08:38;;;;;;;9.07;8.23;;;;;17.00;101046.00;;;;4818371;29;20579;-79
2021/09/25 12:11:09;;;;;;;10.57;7.72;;;;;16.60;101038.00;;;;4817807;29;20528;-77
2021/09/25 12:13:44;;;;;;;17.00;8.27;;;;;16.60;101059.00;;;;4817881;29;20095;-79
2021/09/25 12:16:19;;;;;;;9.20;8.25;;;;;16.00;101038.00;;;;4818148;29;20133;-77
2021/09/25 12:18:51;;;;;;;15.32;9.65;;;;;15.80;101064.00;;;;4818856;29;20081;-77